sensor_id;sensor_type;location;lat;lon;timestamp;P1;durP1;ratioP1;P2;durP2;ratioP2
3943;SDS011;1986;52.546;13.428;2023-07-02T00:01:56;2.17;;;2.07;;
3943;SDS011;1986;52.546;13.428;2023-07-02T00:04:23;2.73;;;2.50;;
3943;SDS011;1986;52.546;13.428;2023-07-02T00:06:50;2.30;;;2.17;;
3943;SDS011;1986;52.546;13.428;2023-07-02T00:09:18;1.60;;;1.50;;
3943;SDS011;1986;52.546;13.428;2023-07-02T00:11:45;2.40;;;1.63;;
3943;SDS011;1986;52.546;13.428;2023-07-02T00:14:13;1.80;;;1.70;;
3943;SDS011;1986;52.546;13.428;2023-07-02T00:16:42;6.63;;;2.20;;
3943;SDS011;1986;52.546;13.428;2023-07-02T00:19:10;1.80;;;1.70;;
3943;SDS011;1986;52.546;13.428;2023-07-02T00:21:37;2.10;;;1.50;;
3943;SDS011;1986;52.546;13.428;2023-07-02T00:24:05;1.10;;;1.10;;
3943;SDS011;1986;52.546;13.428;2023-07-02T00:26:36;1.40;;;1.40;;
3943;SDS011;1986;52.546;13.428;2023-07-02T00:29:05;1.53;;;1.43;;
3943;SDS011;1986;52.546;13.428;2023-07-02T00:31:33;1.93;;;1.83;;
3943;SDS011;1986;52.546;13.428;2023-07-02T00:34:00;2.00;;;1.10;;
3943;SDS011;1986;52.546;13.428;2023-07-02T00:36:27;2.43;;;2.20;;
3943;SDS011;1986;52.546;13.428;2023-07-02T00:38:54;1.30;;;1.30;;
3943;SDS011;1986;52.546;13.428;2023-07-02T00:41:22;2.40;;;1.50;;
3943;SDS011;1986;52.546;13.428;2023-07-02T00:43:50;1.67;;;1.47;;
3943;SDS011;1986;52.546;13.428;2023-07-02T00:46:21;2.20;;;1.30;;
3943;SDS011;1986;52.546;13.428;2023-07-02T00:48:52;1.43;;;1.33;;
3943;SDS011;1986;52.546;13.428;2023-07-02T00:51:22;1.10;;;1.10;;
3943;SDS011;1986;52.546;13.428;2023-07-02T00:53:51;9.60;;;2.10;;
3943;SDS011;1986;52.546;13.428;2023-07-02T00:56:25;6.50;;;2.03;;
3943;SDS011;1986;52.546;13.428;2023-07-02T00:58:54;2.37;;;2.17;;
3943;SDS011;1986;52.546;13.428;2023-07-02T01:01:24;4.50;;;2.80;;
3943;SDS011;1986;52.546;13.428;2023-07-02T01:03:53;2.27;;;2.17;;
3943;SDS011;1986;52.546;13.428;2023-07-02T01:06:25;1.63;;;1.53;;
3943;SDS011;1986;52.546;13.428;2023-07-02T01:08:57;1.30;;;1.10;;
3943;SDS011;1986;52.546;13.428;2023-07-02T01:11:28;1.17;;;1.10;;
3943;SDS011;1986;52.546;13.428;2023-07-02T01:14:01;1.70;;;1.37;;
3943;SDS011;1986;52.546;13.428;2023-07-02T01:16:30;3.53;;;2.70;;
3943;SDS011;1986;52.546;13.428;2023-07-02T01:18:58;1.70;;;0.83;;
3943;SDS011;1986;52.546;13.428;2023-07-02T01:21:29;2.13;;;1.37;;
3943;SDS011;1986;52.546;13.428;2023-07-02T01:23:58;2.80;;;2.60;;
3943;SDS011;1986;52.546;13.428;2023-07-02T01:26:27;1.97;;;1.80;;
3943;SDS011;1986;52.546;13.428;2023-07-02T01:28:55;1.97;;;1.77;;
3943;SDS011;1986;52.546;13.428;2023-07-02T01:31:23;7.30;;;3.07;;
3943;SDS011;1986;52.546;13.428;2023-07-02T01:33:51;2.43;;;2.23;;
3943;SDS011;1986;52.546;13.428;2023-07-02T01:36:18;1.50;;;1.40;;
3943;SDS011;1986;52.546;13.428;2023-07-02T01:38:46;1.93;;;1.63;;
3943;SDS011;1986;52.546;13.428;2023-07-02T01:41:14;5.13;;;3.33;;
3943;SDS011;1986;52.546;13.428;2023-07-02T01:43:41;1.70;;;1.60;;
3943;SDS011;1986;52.546;13.428;2023-07-02T01:46:08;3.13;;;2.07;;
3943;SDS011;1986;52.546;13.428;2023-07-02T01:48:35;4.43;;;2.87;;
3943;SDS011;1986;52.546;13.428;2023-07-02T01:51:03;2.07;;;1.93;;
3943;SDS011;1986;52.546;13.428;2023-07-02T01:53:30;3.47;;;2.57;;
3943;SDS011;1986;52.546;13.428;2023-07-02T01:55:58;4.00;;;3.33;;
3943;SDS011;1986;52.546;13.428;2023-07-02T01:58:25;4.13;;;2.00;;
3943;SDS011;1986;52.546;13.428;2023-07-02T02:00:54;4.80;;;3.37;;
3943;SDS011;1986;52.546;13.428;2023-07-02T02:03:21;3.83;;;2.50;;
3943;SDS011;1986;52.546;13.428;2023-07-02T02:05:50;3.23;;;2.10;;
3943;SDS011;1986;52.546;13.428;2023-07-02T02:08:18;2.43;;;2.27;;
3943;SDS011;1986;52.546;13.428;2023-07-02T02:10:45;2.73;;;2.53;;
3943;SDS011;1986;52.546;13.428;2023-07-02T02:13:13;6.60;;;3.77;;
3943;SDS011;1986;52.546;13.428;2023-07-02T02:15:40;4.43;;;4.00;;
3943;SDS011;1986;52.546;13.428;2023-07-02T02:18:07;8.73;;;5.27;;
3943;SDS011;1986;52.546;13.428;2023-07-02T02:20:34;4.77;;;3.33;;
3943;SDS011;1986;52.546;13.428;2023-07-02T02:23:01;4.67;;;2.60;;
3943;SDS011;1986;52.546;13.428;2023-07-02T02:25:28;8.67;;;6.17;;
3943;SDS011;1986;52.546;13.428;2023-07-02T02:27:55;5.13;;;3.47;;
3943;SDS011;1986;52.546;13.428;2023-07-02T02:30:33;3.80;;;2.70;;
3943;SDS011;1986;52.546;13.428;2023-07-02T02:33:00;2.90;;;2.60;;
3943;SDS011;1986;52.546;13.428;2023-07-02T02:35:27;3.50;;;3.20;;
3943;SDS011;1986;52.546;13.428;2023-07-02T02:37:55;2.60;;;2.40;;
3943;SDS011;1986;52.546;13.428;2023-07-02T02:40:22;4.77;;;3.30;;
3943;SDS011;1986;52.546;13.428;2023-07-02T02:42:49;4.67;;;2.70;;
3943;SDS011;1986;52.546;13.428;2023-07-02T02:45:16;4.10;;;3.77;;
3943;SDS011;1986;52.546;13.428;2023-07-02T02:47:44;4.57;;;4.13;;
3943;SDS011;1986;52.546;13.428;2023-07-02T02:50:12;3.20;;;3.00;;
3943;SDS011;1986;52.546;13.428;2023-07-02T02:52:40;4.33;;;3.27;;
3943;SDS011;1986;52.546;13.428;2023-07-02T02:55:08;8.23;;;3.17;;
3943;SDS011;1986;52.546;13.428;2023-07-02T02:57:37;3.00;;;1.87;;
3943;SDS011;1986;52.546;13.428;2023-07-02T03:00:08;3.07;;;2.60;;
3943;SDS011;1986;52.546;13.428;2023-07-02T03:02:36;2.43;;;2.23;;
3943;SDS011;1986;52.546;13.428;2023-07-02T03:05:05;6.80;;;3.90;;
3943;SDS011;1986;52.546;13.428;2023-07-02T03:07:33;3.00;;;2.83;;
3943;SDS011;1986;52.546;13.428;2023-07-02T03:10:00;2.93;;;2.73;;
3943;SDS011;1986;52.546;13.428;2023-07-02T03:12:28;2.77;;;2.57;;
3943;SDS011;1986;52.546;13.428;2023-07-02T03:14:55;3.80;;;3.60;;
3943;SDS011;1986;52.546;13.428;2023-07-02T03:17:22;4.00;;;3.40;;
3943;SDS011;1986;52.546;13.428;2023-07-02T03:19:49;3.90;;;3.70;;
3943;SDS011;1986;52.546;13.428;2023-07-02T03:22:18;6.33;;;5.77;;
3943;SDS011;1986;52.546;13.428;2023-07-02T03:24:44;7.50;;;5.37;;
3943;SDS011;1986;52.546;13.428;2023-07-02T03:27:12;3.20;;;2.93;;
3943;SDS011;1986;52.546;13.428;2023-07-02T03:29:40;5.43;;;3.00;;
3943;SDS011;1986;52.546;13.428;2023-07-02T03:32:07;3.17;;;3.00;;
3943;SDS011;1986;52.546;13.428;2023-07-02T03:34:34;5.60;;;4.10;;
3943;SDS011;1986;52.546;13.428;2023-07-02T03:37:01;3.43;;;3.13;;
3943;SDS011;1986;52.546;13.428;2023-07-02T03:39:29;4.43;;;4.07;;
3943;SDS011;1986;52.546;13.428;2023-07-02T03:41:56;5.07;;;4.57;;
3943;SDS011;1986;52.546;13.428;2023-07-02T03:44:23;5.10;;;4.80;;
3943;SDS011;1986;52.546;13.428;2023-07-02T03:46:50;3.93;;;3.73;;
3943;SDS011;1986;52.546;13.428;2023-07-02T03:49:17;4.97;;;4.53;;
3943;SDS011;1986;52.546;13.428;2023-07-02T03:51:44;5.07;;;4.70;;
3943;SDS011;1986;52.546;13.428;2023-07-02T03:54:11;5.23;;;4.80;;
3943;SDS011;1986;52.546;13.428;2023-07-02T03:56:46;4.70;;;4.33;;
3943;SDS011;1986;52.546;13.428;2023-07-02T03:59:13;5.40;;;5.00;;
3943;SDS011;1986;52.546;13.428;2023-07-02T04:01:40;10.43;;;5.70;;
3943;SDS011;1986;52.546;13.428;2023-07-02T04:04:07;8.60;;;5.03;;
3943;SDS011;1986;52.546;13.428;2023-07-02T04:06:34;6.77;;;6.13;;
3943;SDS011;1986;52.546;13.428;2023-07-02T04:09:01;6.93;;;5.40;;
3943;SDS011;1986;52.546;13.428;2023-07-02T04:11:29;5.73;;;5.23;;
3943;SDS011;1986;52.546;13.428;2023-07-02T04:13:58;8.97;;;5.90;;
3943;SDS011;1986;52.546;13.428;2023-07-02T04:16:25;5.87;;;5.57;;
3943;SDS011;1986;52.546;13.428;2023-07-02T04:18:52;5.80;;;5.50;;
3943;SDS011;1986;52.546;13.428;2023-07-02T04:21:20;31.37;;;7.33;;
3943;SDS011;1986;52.546;13.428;2023-07-02T04:23:47;7.03;;;6.73;;
3943;SDS011;1986;52.546;13.428;2023-07-02T04:26:14;6.83;;;6.60;;
3943;SDS011;1986;52.546;13.428;2023-07-02T04:28:43;8.27;;;7.70;;
3943;SDS011;1986;52.546;13.428;2023-07-02T04:31:11;7.30;;;7.00;;
3943;SDS011;1986;52.546;13.428;2023-07-02T04:33:39;7.10;;;6.80;;
3943;SDS011;1986;52.546;13.428;2023-07-02T04:36:07;9.23;;;8.53;;
3943;SDS011;1986;52.546;13.428;2023-07-02T04:38:34;6.90;;;6.80;;
3943;SDS011;1986;52.546;13.428;2023-07-02T04:41:01;10.33;;;7.93;;
3943;SDS011;1986;52.546;13.428;2023-07-02T04:43:30;8.47;;;7.97;;
3943;SDS011;1986;52.546;13.428;2023-07-02T04:45:58;10.53;;;9.73;;
3943;SDS011;1986;52.546;13.428;2023-07-02T04:48:26;11.77;;;9.47;;
3943;SDS011;1986;52.546;13.428;2023-07-02T04:50:53;9.57;;;8.73;;
3943;SDS011;1986;52.546;13.428;2023-07-02T04:53:20;10.00;;;9.50;;
3943;SDS011;1986;52.546;13.428;2023-07-02T04:55:48;9.53;;;9.10;;
3943;SDS011;1986;52.546;13.428;2023-07-02T04:58:15;8.33;;;8.03;;
3943;SDS011;1986;52.546;13.428;2023-07-02T05:00:42;8.10;;;7.90;;
3943;SDS011;1986;52.546;13.428;2023-07-02T05:03:09;10.57;;;9.67;;
3943;SDS011;1986;52.546;13.428;2023-07-02T05:05:37;10.03;;;9.23;;
3943;SDS011;1986;52.546;13.428;2023-07-02T05:08:04;10.43;;;9.97;;
3943;SDS011;1986;52.546;13.428;2023-07-02T05:10:32;12.23;;;11.63;;
3943;SDS011;1986;52.546;13.428;2023-07-02T05:12:59;11.40;;;10.20;;
3943;SDS011;1986;52.546;13.428;2023-07-02T05:15:26;12.37;;;11.47;;
3943;SDS011;1986;52.546;13.428;2023-07-02T05:17:53;14.27;;;13.30;;
3943;SDS011;1986;52.546;13.428;2023-07-02T05:20:20;12.93;;;12.23;;
3943;SDS011;1986;52.546;13.428;2023-07-02T05:22:48;11.80;;;11.30;;
3943;SDS011;1986;52.546;13.428;2023-07-02T05:25:15;13.90;;;13.10;;
3943;SDS011;1986;52.546;13.428;2023-07-02T05:27:42;12.87;;;12.37;;
3943;SDS011;1986;52.546;13.428;2023-07-02T05:30:10;13.57;;;12.97;;
3943;SDS011;1986;52.546;13.428;2023-07-02T05:32:37;12.67;;;12.17;;
3943;SDS011;1986;52.546;13.428;2023-07-02T05:35:05;12.70;;;12.10;;
3943;SDS011;1986;52.546;13.428;2023-07-02T05:37:33;15.37;;;14.30;;
3943;SDS011;1986;52.546;13.428;2023-07-02T05:40:01;12.10;;;11.70;;
3943;SDS011;1986;52.546;13.428;2023-07-02T05:42:28;13.13;;;12.60;;
3943;SDS011;1986;52.546;13.428;2023-07-02T05:44:55;13.33;;;12.63;;
3943;SDS011;1986;52.546;13.428;2023-07-02T05:47:22;15.20;;;14.20;;
3943;SDS011;1986;52.546;13.428;2023-07-02T05:49:49;14.87;;;14.07;;
3943;SDS011;1986;52.546;13.428;2023-07-02T05:52:16;14.60;;;13.80;;
3943;SDS011;1986;52.546;13.428;2023-07-02T05:54:44;13.10;;;12.60;;
3943;SDS011;1986;52.546;13.428;2023-07-02T05:57:14;16.17;;;15.23;;
3943;SDS011;1986;52.546;13.428;2023-07-02T05:59:40;15.33;;;14.50;;
3943;SDS011;1986;52.546;13.428;2023-07-02T06:02:07;16.97;;;15.80;;
3943;SDS011;1986;52.546;13.428;2023-07-02T06:04:34;17.27;;;16.37;;
3943;SDS011;1986;52.546;13.428;2023-07-02T06:07:01;18.60;;;17.37;;
3943;SDS011;1986;52.546;13.428;2023-07-02T06:09:28;18.07;;;17.07;;
3943;SDS011;1986;52.546;13.428;2023-07-02T06:11:56;16.23;;;15.53;;
3943;SDS011;1986;52.546;13.428;2023-07-02T06:14:25;17.07;;;16.27;;
3943;SDS011;1986;52.546;13.428;2023-07-02T06:16:53;18.10;;;17.10;;
3943;SDS011;1986;52.546;13.428;2023-07-02T06:19:22;17.97;;;17.00;;
3943;SDS011;1986;52.546;13.428;2023-07-02T06:21:49;17.73;;;16.73;;
3943;SDS011;1986;52.546;13.428;2023-07-02T06:24:16;17.67;;;16.80;;
3943;SDS011;1986;52.546;13.428;2023-07-02T06:26:43;17.90;;;17.03;;
3943;SDS011;1986;52.546;13.428;2023-07-02T06:29:09;17.87;;;16.93;;
3943;SDS011;1986;52.546;13.428;2023-07-02T06:31:38;17.50;;;16.60;;
3943;SDS011;1986;52.546;13.428;2023-07-02T06:34:05;19.97;;;17.27;;
3943;SDS011;1986;52.546;13.428;2023-07-02T06:36:33;17.53;;;16.73;;
3943;SDS011;1986;52.546;13.428;2023-07-02T06:39:00;16.90;;;16.13;;
3943;SDS011;1986;52.546;13.428;2023-07-02T06:41:27;17.60;;;16.43;;
3943;SDS011;1986;52.546;13.428;2023-07-02T06:43:54;19.60;;;18.30;;
3943;SDS011;1986;52.546;13.428;2023-07-02T06:46:24;19.30;;;18.30;;
3943;SDS011;1986;52.546;13.428;2023-07-02T06:48:52;21.07;;;19.70;;
3943;SDS011;1986;52.546;13.428;2023-07-02T06:51:19;20.10;;;18.90;;
3943;SDS011;1986;52.546;13.428;2023-07-02T06:53:46;20.13;;;18.90;;
3943;SDS011;1986;52.546;13.428;2023-07-02T06:56:14;19.90;;;18.70;;
3943;SDS011;1986;52.546;13.428;2023-07-02T06:58:41;20.43;;;19.23;;
3943;SDS011;1986;52.546;13.428;2023-07-02T07:01:09;20.63;;;18.60;;
3943;SDS011;1986;52.546;13.428;2023-07-02T07:03:36;21.27;;;19.80;;
3943;SDS011;1986;52.546;13.428;2023-07-02T07:06:04;20.10;;;18.90;;
3943;SDS011;1986;52.546;13.428;2023-07-02T07:08:31;19.30;;;18.30;;
3943;SDS011;1986;52.546;13.428;2023-07-02T07:10:58;18.23;;;17.37;;
3943;SDS011;1986;52.546;13.428;2023-07-02T07:13:26;19.30;;;18.20;;
3943;SDS011;1986;52.546;13.428;2023-07-02T07:15:53;20.30;;;18.77;;
3943;SDS011;1986;52.546;13.428;2023-07-02T07:18:20;19.97;;;18.30;;
3943;SDS011;1986;52.546;13.428;2023-07-02T07:20:52;19.83;;;18.63;;
3943;SDS011;1986;52.546;13.428;2023-07-02T07:23:20;21.07;;;19.40;;
3943;SDS011;1986;52.546;13.428;2023-07-02T07:25:48;19.83;;;18.70;;
3943;SDS011;1986;52.546;13.428;2023-07-02T07:28:14;19.00;;;17.97;;
3943;SDS011;1986;52.546;13.428;2023-07-02T07:30:42;20.53;;;19.23;;
3943;SDS011;1986;52.546;13.428;2023-07-02T07:33:10;20.93;;;19.47;;
3943;SDS011;1986;52.546;13.428;2023-07-02T07:35:37;20.90;;;19.63;;
3943;SDS011;1986;52.546;13.428;2023-07-02T07:38:04;20.10;;;18.57;;
3943;SDS011;1986;52.546;13.428;2023-07-02T07:40:32;20.00;;;18.77;;
3943;SDS011;1986;52.546;13.428;2023-07-02T07:42:59;20.40;;;19.20;;
3943;SDS011;1986;52.546;13.428;2023-07-02T07:45:26;21.13;;;19.40;;
3943;SDS011;1986;52.546;13.428;2023-07-02T07:47:53;21.10;;;19.30;;
3943;SDS011;1986;52.546;13.428;2023-07-02T07:50:23;21.10;;;19.70;;
3943;SDS011;1986;52.546;13.428;2023-07-02T07:52:50;20.33;;;19.00;;
3943;SDS011;1986;52.546;13.428;2023-07-02T07:55:17;20.17;;;19.00;;
3943;SDS011;1986;52.546;13.428;2023-07-02T07:57:47;19.70;;;18.27;;
3943;SDS011;1986;52.546;13.428;2023-07-02T08:00:15;20.27;;;19.00;;
3943;SDS011;1986;52.546;13.428;2023-07-02T08:02:42;18.30;;;17.40;;
3943;SDS011;1986;52.546;13.428;2023-07-02T08:05:09;20.20;;;18.90;;
3943;SDS011;1986;52.546;13.428;2023-07-02T08:07:36;19.80;;;18.33;;
3943;SDS011;1986;52.546;13.428;2023-07-02T08:10:03;17.87;;;16.70;;
3943;SDS011;1986;52.546;13.428;2023-07-02T08:12:33;18.50;;;17.43;;
3943;SDS011;1986;52.546;13.428;2023-07-02T08:15:02;19.10;;;17.70;;
3943;SDS011;1986;52.546;13.428;2023-07-02T08:17:29;18.27;;;17.37;;
3943;SDS011;1986;52.546;13.428;2023-07-02T08:19:57;18.20;;;17.20;;
3943;SDS011;1986;52.546;13.428;2023-07-02T08:22:23;19.17;;;18.07;;
3943;SDS011;1986;52.546;13.428;2023-07-02T08:24:50;18.37;;;17.33;;
3943;SDS011;1986;52.546;13.428;2023-07-02T08:27:17;18.77;;;17.67;;
3943;SDS011;1986;52.546;13.428;2023-07-02T08:29:46;18.50;;;17.60;;
3943;SDS011;1986;52.546;13.428;2023-07-02T08:32:15;19.70;;;18.37;;
3943;SDS011;1986;52.546;13.428;2023-07-02T08:34:43;19.93;;;18.73;;
3943;SDS011;1986;52.546;13.428;2023-07-02T08:37:16;20.10;;;18.90;;
3943;SDS011;1986;52.546;13.428;2023-07-02T08:39:57;18.73;;;17.63;;
3943;SDS011;1986;52.546;13.428;2023-07-02T08:42:24;20.20;;;18.93;;
3943;SDS011;1986;52.546;13.428;2023-07-02T08:44:54;19.03;;;18.10;;
3943;SDS011;1986;52.546;13.428;2023-07-02T08:47:27;19.63;;;18.53;;
3943;SDS011;1986;52.546;13.428;2023-07-02T08:49:54;20.30;;;19.07;;
3943;SDS011;1986;52.546;13.428;2023-07-02T08:52:21;20.63;;;19.07;;
3943;SDS011;1986;52.546;13.428;2023-07-02T08:54:48;19.73;;;18.50;;
3943;SDS011;1986;52.546;13.428;2023-07-02T08:57:15;20.53;;;18.93;;
3943;SDS011;1986;52.546;13.428;2023-07-02T08:59:42;20.50;;;19.30;;
3943;SDS011;1986;52.546;13.428;2023-07-02T09:02:09;20.13;;;18.67;;
3943;SDS011;1986;52.546;13.428;2023-07-02T09:04:39;21.60;;;20.07;;
3943;SDS011;1986;52.546;13.428;2023-07-02T09:07:07;19.53;;;18.53;;
3943;SDS011;1986;52.546;13.428;2023-07-02T09:09:43;21.47;;;19.97;;
3943;SDS011;1986;52.546;13.428;2023-07-02T09:12:21;20.20;;;18.90;;
3943;SDS011;1986;52.546;13.428;2023-07-02T09:17:32;21.63;;;20.33;;
3943;SDS011;1986;52.546;13.428;2023-07-02T09:20:03;22.10;;;20.40;;
3943;SDS011;1986;52.546;13.428;2023-07-02T09:22:33;22.30;;;20.80;;
3943;SDS011;1986;52.546;13.428;2023-07-02T09:25:00;23.77;;;22.07;;
3943;SDS011;1986;52.546;13.428;2023-07-02T09:27:34;22.67;;;20.97;;
3943;SDS011;1986;52.546;13.428;2023-07-02T09:30:07;24.20;;;22.20;;
3943;SDS011;1986;52.546;13.428;2023-07-02T09:32:37;22.97;;;21.47;;
3943;SDS011;1986;52.546;13.428;2023-07-02T09:35:06;22.90;;;20.93;;
3943;SDS011;1986;52.546;13.428;2023-07-02T09:37:33;22.37;;;20.60;;
3943;SDS011;1986;52.546;13.428;2023-07-02T09:40:00;23.43;;;21.57;;
3943;SDS011;1986;52.546;13.428;2023-07-02T09:42:30;29.80;;;21.63;;
3943;SDS011;1986;52.546;13.428;2023-07-02T09:45:00;23.27;;;21.43;;
3943;SDS011;1986;52.546;13.428;2023-07-02T09:47:30;24.30;;;22.03;;
3943;SDS011;1986;52.546;13.428;2023-07-02T09:50:00;21.90;;;20.50;;
3943;SDS011;1986;52.546;13.428;2023-07-02T09:52:34;22.67;;;21.03;;
3943;SDS011;1986;52.546;13.428;2023-07-02T09:55:02;23.87;;;21.90;;
3943;SDS011;1986;52.546;13.428;2023-07-02T09:57:30;31.80;;;21.17;;
3943;SDS011;1986;52.546;13.428;2023-07-02T09:59:58;26.33;;;23.93;;
3943;SDS011;1986;52.546;13.428;2023-07-02T10:02:27;31.53;;;23.33;;
3943;SDS011;1986;52.546;13.428;2023-07-02T10:04:55;24.60;;;22.10;;
3943;SDS011;1986;52.546;13.428;2023-07-02T10:07:26;24.00;;;22.30;;
3943;SDS011;1986;52.546;13.428;2023-07-02T10:09:55;24.43;;;22.53;;
3943;SDS011;1986;52.546;13.428;2023-07-02T10:12:23;26.00;;;23.47;;
3943;SDS011;1986;52.546;13.428;2023-07-02T10:14:51;24.07;;;22.27;;
3943;SDS011;1986;52.546;13.428;2023-07-02T10:17:23;23.87;;;22.10;;
3943;SDS011;1986;52.546;13.428;2023-07-02T10:19:52;33.93;;;22.60;;
3943;SDS011;1986;52.546;13.428;2023-07-02T10:22:22;24.80;;;23.00;;
3943;SDS011;1986;52.546;13.428;2023-07-02T10:24:50;25.47;;;23.30;;
3943;SDS011;1986;52.546;13.428;2023-07-02T10:27:34;24.53;;;22.57;;
3943;SDS011;1986;52.546;13.428;2023-07-02T10:30:02;22.73;;;21.13;;
3943;SDS011;1986;52.546;13.428;2023-07-02T10:32:30;24.10;;;22.07;;
3943;SDS011;1986;52.546;13.428;2023-07-02T10:34:59;26.37;;;23.90;;
3943;SDS011;1986;52.546;13.428;2023-07-02T10:37:34;23.93;;;22.13;;
3943;SDS011;1986;52.546;13.428;2023-07-02T10:40:04;27.63;;;23.57;;
3943;SDS011;1986;52.546;13.428;2023-07-02T10:42:43;26.37;;;24.07;;
3943;SDS011;1986;52.546;13.428;2023-07-02T10:45:14;25.80;;;23.53;;
3943;SDS011;1986;52.546;13.428;2023-07-02T10:47:42;26.30;;;23.90;;
3943;SDS011;1986;52.546;13.428;2023-07-02T10:50:16;25.00;;;22.90;;
3943;SDS011;1986;52.546;13.428;2023-07-02T10:52:43;26.30;;;23.50;;
3943;SDS011;1986;52.546;13.428;2023-07-02T10:55:18;29.47;;;24.97;;
3943;SDS011;1986;52.546;13.428;2023-07-02T10:57:46;27.10;;;24.43;;
3943;SDS011;1986;52.546;13.428;2023-07-02T11:00:16;27.33;;;24.40;;
3943;SDS011;1986;52.546;13.428;2023-07-02T11:02:44;27.10;;;24.70;;
3943;SDS011;1986;52.546;13.428;2023-07-02T11:05:11;25.20;;;23.33;;
3943;SDS011;1986;52.546;13.428;2023-07-02T11:07:39;27.13;;;24.40;;
3943;SDS011;1986;52.546;13.428;2023-07-02T11:10:07;23.27;;;21.73;;
3943;SDS011;1986;52.546;13.428;2023-07-02T11:12:36;30.97;;;23.30;;
3943;SDS011;1986;52.546;13.428;2023-07-02T11:15:08;22.43;;;20.93;;
3943;SDS011;1986;52.546;13.428;2023-07-02T11:17:35;26.50;;;24.13;;
3943;SDS011;1986;52.546;13.428;2023-07-02T11:20:04;25.60;;;23.57;;
3943;SDS011;1986;52.546;13.428;2023-07-02T11:22:33;25.70;;;23.57;;
3943;SDS011;1986;52.546;13.428;2023-07-02T11:25:08;27.47;;;25.00;;
3943;SDS011;1986;52.546;13.428;2023-07-02T11:27:36;25.20;;;23.00;;
3943;SDS011;1986;52.546;13.428;2023-07-02T11:30:15;25.37;;;23.17;;
3943;SDS011;1986;52.546;13.428;2023-07-02T11:32:49;58.07;;;26.90;;
3943;SDS011;1986;52.546;13.428;2023-07-02T11:35:17;27.97;;;24.83;;
3943;SDS011;1986;52.546;13.428;2023-07-02T11:37:47;24.40;;;22.70;;
3943;SDS011;1986;52.546;13.428;2023-07-02T11:40:16;27.73;;;25.17;;
3943;SDS011;1986;52.546;13.428;2023-07-02T11:42:45;34.67;;;26.23;;
3943;SDS011;1986;52.546;13.428;2023-07-02T11:45:15;30.33;;;27.20;;
3943;SDS011;1986;52.546;13.428;2023-07-02T11:47:42;28.40;;;26.03;;
3943;SDS011;1986;52.546;13.428;2023-07-02T11:50:10;30.37;;;27.43;;
3943;SDS011;1986;52.546;13.428;2023-07-02T11:52:37;31.37;;;28.13;;
3943;SDS011;1986;52.546;13.428;2023-07-02T11:55:05;32.53;;;29.47;;
3943;SDS011;1986;52.546;13.428;2023-07-02T11:57:33;30.53;;;27.70;;
3943;SDS011;1986;52.546;13.428;2023-07-02T12:00:00;33.20;;;29.97;;
3943;SDS011;1986;52.546;13.428;2023-07-02T12:02:29;32.37;;;28.90;;
3943;SDS011;1986;52.546;13.428;2023-07-02T12:04:58;34.03;;;30.90;;
3943;SDS011;1986;52.546;13.428;2023-07-02T12:07:26;33.03;;;30.00;;
3943;SDS011;1986;52.546;13.428;2023-07-02T12:09:52;32.37;;;29.30;;
3943;SDS011;1986;52.546;13.428;2023-07-02T12:12:20;34.40;;;31.10;;
3943;SDS011;1986;52.546;13.428;2023-07-02T12:14:47;33.47;;;30.37;;
3943;SDS011;1986;52.546;13.428;2023-07-02T12:17:17;32.47;;;29.40;;
3943;SDS011;1986;52.546;13.428;2023-07-02T12:19:46;31.13;;;28.23;;
3943;SDS011;1986;52.546;13.428;2023-07-02T12:22:13;30.63;;;28.13;;
3943;SDS011;1986;52.546;13.428;2023-07-02T12:24:41;32.07;;;29.27;;
3943;SDS011;1986;52.546;13.428;2023-07-02T12:27:11;32.70;;;29.60;;
3943;SDS011;1986;52.546;13.428;2023-07-02T12:29:38;33.73;;;30.40;;
3943;SDS011;1986;52.546;13.428;2023-07-02T12:32:05;33.97;;;30.40;;
3943;SDS011;1986;52.546;13.428;2023-07-02T12:34:34;34.47;;;31.23;;
3943;SDS011;1986;52.546;13.428;2023-07-02T12:37:03;33.37;;;30.30;;
3943;SDS011;1986;52.546;13.428;2023-07-02T12:39:34;32.17;;;29.50;;
3943;SDS011;1986;52.546;13.428;2023-07-02T12:42:02;34.10;;;30.93;;
3943;SDS011;1986;52.546;13.428;2023-07-02T12:44:29;32.93;;;30.30;;
3943;SDS011;1986;52.546;13.428;2023-07-02T12:46:57;35.47;;;31.83;;
3943;SDS011;1986;52.546;13.428;2023-07-02T12:49:26;35.77;;;32.17;;
3943;SDS011;1986;52.546;13.428;2023-07-02T12:51:53;36.67;;;32.70;;
3943;SDS011;1986;52.546;13.428;2023-07-02T12:54:22;33.73;;;30.43;;
3943;SDS011;1986;52.546;13.428;2023-07-02T12:56:49;38.73;;;34.60;;
3943;SDS011;1986;52.546;13.428;2023-07-02T12:59:16;37.10;;;31.90;;
3943;SDS011;1986;52.546;13.428;2023-07-02T13:01:44;33.10;;;29.70;;
3943;SDS011;1986;52.546;13.428;2023-07-02T13:04:10;34.80;;;31.40;;
3943;SDS011;1986;52.546;13.428;2023-07-02T13:06:39;31.40;;;28.27;;
3943;SDS011;1986;52.546;13.428;2023-07-02T13:09:06;33.07;;;29.67;;
3943;SDS011;1986;52.546;13.428;2023-07-02T13:11:34;33.70;;;30.03;;
3943;SDS011;1986;52.546;13.428;2023-07-02T13:14:03;35.30;;;32.10;;
3943;SDS011;1986;52.546;13.428;2023-07-02T13:16:30;34.43;;;30.80;;
3943;SDS011;1986;52.546;13.428;2023-07-02T13:18:57;30.47;;;28.17;;
3943;SDS011;1986;52.546;13.428;2023-07-02T13:21:26;41.33;;;33.90;;
3943;SDS011;1986;52.546;13.428;2023-07-02T13:23:53;40.93;;;31.00;;
3943;SDS011;1986;52.546;13.428;2023-07-02T13:26:20;34.80;;;31.37;;
3943;SDS011;1986;52.546;13.428;2023-07-02T13:28:48;35.20;;;31.67;;
3943;SDS011;1986;52.546;13.428;2023-07-02T13:31:16;35.83;;;31.80;;
3943;SDS011;1986;52.546;13.428;2023-07-02T13:33:42;38.10;;;34.10;;
3943;SDS011;1986;52.546;13.428;2023-07-02T13:36:11;34.03;;;30.90;;
3943;SDS011;1986;52.546;13.428;2023-07-02T13:38:38;33.50;;;30.33;;
3943;SDS011;1986;52.546;13.428;2023-07-02T13:41:05;35.67;;;32.10;;
3943;SDS011;1986;52.546;13.428;2023-07-02T13:43:32;32.47;;;30.03;;
3943;SDS011;1986;52.546;13.428;2023-07-02T13:46:02;34.07;;;30.27;;
3943;SDS011;1986;52.546;13.428;2023-07-02T13:48:29;42.50;;;32.17;;
3943;SDS011;1986;52.546;13.428;2023-07-02T13:50:56;35.10;;;31.67;;
3943;SDS011;1986;52.546;13.428;2023-07-02T13:53:23;45.27;;;30.77;;
3943;SDS011;1986;52.546;13.428;2023-07-02T13:55:53;34.03;;;31.00;;
3943;SDS011;1986;52.546;13.428;2023-07-02T13:58:22;33.17;;;30.27;;
3943;SDS011;1986;52.546;13.428;2023-07-02T14:00:50;40.03;;;32.97;;
3943;SDS011;1986;52.546;13.428;2023-07-02T14:03:17;32.13;;;28.97;;
3943;SDS011;1986;52.546;13.428;2023-07-02T14:05:44;33.57;;;30.50;;
3943;SDS011;1986;52.546;13.428;2023-07-02T14:08:11;35.00;;;31.37;;
3943;SDS011;1986;52.546;13.428;2023-07-02T14:10:38;34.87;;;30.87;;
3943;SDS011;1986;52.546;13.428;2023-07-02T14:13:06;35.20;;;31.90;;
3943;SDS011;1986;52.546;13.428;2023-07-02T14:15:33;35.70;;;32.37;;
3943;SDS011;1986;52.546;13.428;2023-07-02T14:18:03;35.40;;;32.13;;
3943;SDS011;1986;52.546;13.428;2023-07-02T14:20:31;33.50;;;30.30;;
3943;SDS011;1986;52.546;13.428;2023-07-02T14:22:59;30.57;;;28.20;;
3943;SDS011;1986;52.546;13.428;2023-07-02T14:25:27;33.80;;;30.80;;
3943;SDS011;1986;52.546;13.428;2023-07-02T14:27:53;34.40;;;30.97;;
3943;SDS011;1986;52.546;13.428;2023-07-02T14:30:20;33.73;;;30.87;;
3943;SDS011;1986;52.546;13.428;2023-07-02T14:32:47;34.47;;;31.37;;
3943;SDS011;1986;52.546;13.428;2023-07-02T14:35:16;37.00;;;33.47;;
3943;SDS011;1986;52.546;13.428;2023-07-02T14:37:47;33.93;;;30.80;;
3943;SDS011;1986;52.546;13.428;2023-07-02T14:40:14;32.30;;;29.30;;
3943;SDS011;1986;52.546;13.428;2023-07-02T14:42:41;34.63;;;31.23;;
3943;SDS011;1986;52.546;13.428;2023-07-02T14:45:08;33.90;;;30.67;;
3943;SDS011;1986;52.546;13.428;2023-07-02T14:47:35;34.00;;;30.73;;
3943;SDS011;1986;52.546;13.428;2023-07-02T14:50:02;34.40;;;31.03;;
3943;SDS011;1986;52.546;13.428;2023-07-02T14:52:31;34.23;;;31.10;;